sensor_id;sensor_type;location;lat;lon;timestamp;pressure;altitude;pressure_sealevel;temperature;humidity
59055;BME280;44845;51.444;7.460;2023-06-26T00:01:17;99499.09;;;21.28;62.10
59055;BME280;44845;51.444;7.460;2023-06-26T00:03:48;99492.03;;;21.27;61.41
59055;BME280;44845;51.444;7.460;2023-06-26T00:06:14;99492.31;;;21.22;61.29
59055;BME280;44845;51.444;7.460;2023-06-26T00:08:39;99491.38;;;21.23;62.58
59055;BME280;44845;51.444;7.460;2023-06-26T00:11:05;99494.03;;;21.23;62.88
59055;BME280;44845;51.444;7.460;2023-06-26T00:13:31;99494.03;;;21.23;61.87
59055;BME280;44845;51.444;7.460;2023-06-26T00:15:56;99497.75;;;21.21;62.01
59055;BME280;44845;51.444;7.460;2023-06-26T00:18:22;99488.19;;;21.17;62.23
59055;BME280;44845;51.444;7.460;2023-06-26T00:20:48;99490.19;;;21.13;60.42
59055;BME280;44845;51.444;7.460;2023-06-26T00:23:16;99491.03;;;21.13;59.83
59055;BME280;44845;51.444;7.460;2023-06-26T00:25:41;99484.09;;;21.11;61.17
59055;BME280;44845;51.444;7.460;2023-06-26T00:28:07;99489.50;;;21.09;60.90
59055;BME280;44845;51.444;7.460;2023-06-26T00:30:32;99487.50;;;21.13;60.94
59055;BME280;44845;51.444;7.460;2023-06-26T00:32:57;99488.28;;;21.15;60.75
59055;BME280;44845;51.444;7.460;2023-06-26T00:35:23;99481.81;;;21.19;60.22
59055;BME280;44845;51.444;7.460;2023-06-26T00:37:48;99482.78;;;21.18;61.25
59055;BME280;44845;51.444;7.460;2023-06-26T00:40:14;99484.47;;;21.19;60.59
59055;BME280;44845;51.444;7.460;2023-06-26T00:42:40;99484.69;;;21.16;60.97
59055;BME280;44845;51.444;7.460;2023-06-26T00:45:05;99481.91;;;21.18;61.28
59055;BME280;44845;51.444;7.460;2023-06-26T00:47:31;99480.19;;;21.17;60.85
59055;BME280;44845;51.444;7.460;2023-06-26T00:49:56;99478.66;;;21.12;60.47
59055;BME280;44845;51.444;7.460;2023-06-26T00:52:22;99481.06;;;21.17;59.11
59055;BME280;44845;51.444;7.460;2023-06-26T00:54:48;99472.47;;;21.12;60.53
59055;BME280;44845;51.444;7.460;2023-06-26T00:57:16;99476.00;;;21.12;60.89
59055;BME280;44845;51.444;7.460;2023-06-26T00:59:41;99468.75;;;21.14;60.22
59055;BME280;44845;51.444;7.460;2023-06-26T01:02:07;99466.38;;;21.10;59.91
59055;BME280;44845;51.444;7.460;2023-06-26T01:04:32;99458.38;;;21.10;58.87
59055;BME280;44845;51.444;7.460;2023-06-26T01:06:59;99462.00;;;21.09;60.48
59055;BME280;44845;51.444;7.460;2023-06-26T01:09:24;99466.47;;;21.08;59.88
59055;BME280;44845;51.444;7.460;2023-06-26T01:11:50;99454.00;;;21.09;60.84
59055;BME280;44845;51.444;7.460;2023-06-26T01:14:16;99454.75;;;21.11;59.24
59055;BME280;44845;51.444;7.460;2023-06-26T01:16:43;99452.38;;;21.06;59.44
59055;BME280;44845;51.444;7.460;2023-06-26T01:19:20;99453.41;;;21.03;60.36
59055;BME280;44845;51.444;7.460;2023-06-26T01:21:51;99456.06;;;21.03;59.54
59055;BME280;44845;51.444;7.460;2023-06-26T01:24:22;99452.63;;;21.01;59.67
59055;BME280;44845;51.444;7.460;2023-06-26T01:26:52;99447.03;;;21.06;60.88
59055;BME280;44845;51.444;7.460;2023-06-26T01:29:18;99451.69;;;21.02;60.89
59055;BME280;44845;51.444;7.460;2023-06-26T01:31:46;99446.19;;;21.06;60.63
59055;BME280;44845;51.444;7.460;2023-06-26T01:34:16;99440.84;;;21.06;60.54
59055;BME280;44845;51.444;7.460;2023-06-26T01:36:44;99441.88;;;21.03;59.79
59055;BME280;44845;51.444;7.460;2023-06-26T01:39:10;99433.13;;;21.01;61.71
59055;BME280;44845;51.444;7.460;2023-06-26T01:41:36;99434.28;;;20.95;61.54
59055;BME280;44845;51.444;7.460;2023-06-26T01:44:26;99437.47;;;21.02;60.57
59055;BME280;44845;51.444;7.460;2023-06-26T01:47:02;99431.63;;;20.95;61.40
59055;BME280;44845;51.444;7.460;2023-06-26T01:49:50;99431.34;;;21.00;59.81
59055;BME280;44845;51.444;7.460;2023-06-26T01:52:23;99432.59;;;20.94;60.79
59055;BME280;44845;51.444;7.460;2023-06-26T01:56:03;99434.13;;;20.98;59.96
59055;BME280;44845;51.444;7.460;2023-06-26T01:57:58;99427.44;;;20.91;58.81
59055;BME280;44845;51.444;7.460;2023-06-26T02:00:24;99426.47;;;20.92;59.25
59055;BME280;44845;51.444;7.460;2023-06-26T02:02:52;99423.63;;;20.95;58.69
59055;BME280;44845;51.444;7.460;2023-06-26T02:05:17;99423.03;;;20.90;58.45
59055;BME280;44845;51.444;7.460;2023-06-26T02:07:43;99415.75;;;20.93;58.90
59055;BME280;44845;51.444;7.460;2023-06-26T02:10:09;99420.38;;;20.90;59.95
59055;BME280;44845;51.444;7.460;2023-06-26T02:12:35;99421.25;;;20.90;60.81
59055;BME280;44845;51.444;7.460;2023-06-26T02:15:01;99414.88;;;20.93;58.51
59055;BME280;44845;51.444;7.460;2023-06-26T02:17:27;99417.28;;;20.98;59.11
59055;BME280;44845;51.444;7.460;2023-06-26T02:19:52;99415.91;;;20.90;58.77
59055;BME280;44845;51.444;7.460;2023-06-26T02:22:17;99409.72;;;20.90;58.90
59055;BME280;44845;51.444;7.460;2023-06-26T02:24:43;99414.38;;;20.86;57.83
59055;BME280;44845;51.444;7.460;2023-06-26T02:27:09;99416.28;;;20.84;58.23
59055;BME280;44845;51.444;7.460;2023-06-26T02:29:34;99416.78;;;20.91;58.78
59055;BME280;44845;51.444;7.460;2023-06-26T02:32:00;99415.41;;;20.84;60.40
59055;BME280;44845;51.444;7.460;2023-06-26T02:34:25;99414.81;;;20.78;58.63
59055;BME280;44845;51.444;7.460;2023-06-26T02:36:50;99417.31;;;20.81;58.48
59055;BME280;44845;51.444;7.460;2023-06-26T02:39:19;99412.00;;;20.81;57.54
59055;BME280;44845;51.444;7.460;2023-06-26T02:41:44;99419.19;;;20.79;58.53
59055;BME280;44845;51.444;7.460;2023-06-26T02:44:10;99409.22;;;20.83;58.25
59055;BME280;44845;51.444;7.460;2023-06-26T02:46:37;99421.28;;;20.74;59.04
59055;BME280;44845;51.444;7.460;2023-06-26T02:49:02;99419.38;;;20.76;58.21
59055;BME280;44845;51.444;7.460;2023-06-26T02:51:28;99413.19;;;20.76;57.62
59055;BME280;44845;51.444;7.460;2023-06-26T02:53:53;99414.22;;;20.73;58.62
59055;BME280;44845;51.444;7.460;2023-06-26T02:56:18;99418.16;;;20.82;57.49
59055;BME280;44845;51.444;7.460;2023-06-26T02:58:44;99408.72;;;20.76;57.79
59055;BME280;44845;51.444;7.460;2023-06-26T03:01:09;99417.81;;;20.72;59.79
59055;BME280;44845;51.444;7.460;2023-06-26T03:03:34;99410.69;;;20.73;59.59
59055;BME280;44845;51.444;7.460;2023-06-26T03:06:06;99408.22;;;20.69;59.04
59055;BME280;44845;51.444;7.460;2023-06-26T03:08:33;99414.22;;;20.73;60.54
59055;BME280;44845;51.444;7.460;2023-06-26T03:10:58;99421.44;;;20.71;60.61
59055;BME280;44845;51.444;7.460;2023-06-26T03:13:23;99416.47;;;20.65;60.41
59055;BME280;44845;51.444;7.460;2023-06-26T03:15:49;99430.75;;;20.64;60.45
59055;BME280;44845;51.444;7.460;2023-06-26T03:18:14;99426.00;;;20.69;60.29
59055;BME280;44845;51.444;7.460;2023-06-26T03:20:39;99430.91;;;20.61;60.39
59055;BME280;44845;51.444;7.460;2023-06-26T03:23:05;99431.06;;;20.57;60.91
59055;BME280;44845;51.444;7.460;2023-06-26T03:25:30;99425.56;;;20.61;61.06
59055;BME280;44845;51.444;7.460;2023-06-26T03:27:56;99427.38;;;20.60;60.56
59055;BME280;44845;51.444;7.460;2023-06-26T03:30:21;99427.47;;;20.58;60.66
59055;BME280;44845;51.444;7.460;2023-06-26T03:32:46;99437.19;;;20.59;61.26
59055;BME280;44845;51.444;7.460;2023-06-26T03:35:12;99440.97;;;20.55;60.66
59055;BME280;44845;51.444;7.460;2023-06-26T03:37:37;99441.72;;;20.57;61.10
59055;BME280;44845;51.444;7.460;2023-06-26T03:40:03;99441.91;;;20.54;60.24
59055;BME280;44845;51.444;7.460;2023-06-26T03:42:29;99435.03;;;20.50;60.26
59055;BME280;44845;51.444;7.460;2023-06-26T03:44:55;99439.41;;;20.51;60.68
59055;BME280;44845;51.444;7.460;2023-06-26T03:47:20;99441.31;;;20.49;60.57
59055;BME280;44845;51.444;7.460;2023-06-26T03:49:46;99433.50;;;20.46;60.90
59055;BME280;44845;51.444;7.460;2023-06-26T03:52:11;99444.31;;;20.43;60.15
59055;BME280;44845;51.444;7.460;2023-06-26T03:54:36;99449.97;;;20.53;58.40
59055;BME280;44845;51.444;7.460;2023-06-26T03:57:02;99448.34;;;20.50;58.94
59055;BME280;44845;51.444;7.460;2023-06-26T03:59:28;99451.97;;;20.49;61.16
59055;BME280;44845;51.444;7.460;2023-06-26T04:01:53;99452.03;;;20.47;61.04
59055;BME280;44845;51.444;7.460;2023-06-26T04:04:18;99443.97;;;20.49;60.29
59055;BME280;44845;51.444;7.460;2023-06-26T04:06:44;99452.91;;;20.48;61.06
59055;BME280;44845;51.444;7.460;2023-06-26T04:09:09;99457.19;;;20.51;60.84
59055;BME280;44845;51.444;7.460;2023-06-26T04:11:34;99460.81;;;20.50;61.91
59055;BME280;44845;51.444;7.460;2023-06-26T04:14:02;99463.22;;;20.54;61.80
59055;BME280;44845;51.444;7.460;2023-06-26T04:16:28;99469.59;;;20.52;61.56
59055;BME280;44845;51.444;7.460;2023-06-26T04:18:54;99459.09;;;20.48;62.25
59055;BME280;44845;51.444;7.460;2023-06-26T04:21:21;99462.69;;;20.47;62.07
59055;BME280;44845;51.444;7.460;2023-06-26T04:23:49;99463.28;;;20.53;62.64
59055;BME280;44845;51.444;7.460;2023-06-26T04:26:14;99456.16;;;20.53;62.54
59055;BME280;44845;51.444;7.460;2023-06-26T04:28:40;99471.53;;;20.48;62.67
59055;BME280;44845;51.444;7.460;2023-06-26T04:31:05;99476.81;;;20.50;63.94
59055;BME280;44845;51.444;7.460;2023-06-26T04:33:31;99479.09;;;20.56;63.86
59055;BME280;44845;51.444;7.460;2023-06-26T04:35:56;99476.19;;;20.61;63.33
59055;BME280;44845;51.444;7.460;2023-06-26T04:38:22;99483.25;;;20.62;63.82
59055;BME280;44845;51.444;7.460;2023-06-26T04:40:48;99479.81;;;20.59;64.10
59055;BME280;44845;51.444;7.460;2023-06-26T04:43:14;99481.78;;;20.56;63.94
59055;BME280;44845;51.444;7.460;2023-06-26T04:45:39;99480.47;;;20.63;64.12
59055;BME280;44845;51.444;7.460;2023-06-26T04:48:04;99487.00;;;20.57;63.94
59055;BME280;44845;51.444;7.460;2023-06-26T04:50:31;99486.75;;;20.62;64.22
59055;BME280;44845;51.444;7.460;2023-06-26T04:52:57;99499.84;;;20.67;64.28
59055;BME280;44845;51.444;7.460;2023-06-26T04:55:25;99497.94;;;20.69;64.28
59055;BME280;44845;51.444;7.460;2023-06-26T04:57:51;99494.31;;;20.70;63.46
59055;BME280;44845;51.444;7.460;2023-06-26T05:00:17;99499.63;;;20.70;63.88
59055;BME280;44845;51.444;7.460;2023-06-26T05:02:44;99492.19;;;20.77;63.67
59055;BME280;44845;51.444;7.460;2023-06-26T05:05:09;99506.28;;;20.79;63.76
59055;BME280;44845;51.444;7.460;2023-06-26T05:07:35;99507.97;;;20.80;64.90
59055;BME280;44845;51.444;7.460;2023-06-26T05:10:01;99511.75;;;20.92;64.62
59055;BME280;44845;51.444;7.460;2023-06-26T05:12:26;99502.72;;;20.95;64.45
59055;BME280;44845;51.444;7.460;2023-06-26T05:14:52;99507.22;;;20.94;64.63
59055;BME280;44845;51.444;7.460;2023-06-26T05:17:17;99510.44;;;20.99;64.37
59055;BME280;44845;51.444;7.460;2023-06-26T05:19:42;99514.72;;;21.03;64.60
59055;BME280;44845;51.444;7.460;2023-06-26T05:22:08;99507.53;;;21.04;64.11
59055;BME280;44845;51.444;7.460;2023-06-26T05:24:35;99513.75;;;21.04;64.12
59055;BME280;44845;51.444;7.460;2023-06-26T05:27:01;99517.19;;;21.07;64.71
59055;BME280;44845;51.444;7.460;2023-06-26T05:29:27;99520.63;;;21.09;64.97
59055;BME280;44845;51.444;7.460;2023-06-26T05:31:56;99516.66;;;21.16;65.04
59055;BME280;44845;51.444;7.460;2023-06-26T05:34:22;99518.81;;;21.25;65.43
59055;BME280;44845;51.444;7.460;2023-06-26T05:36:50;99511.84;;;21.23;65.84
59055;BME280;44845;51.444;7.460;2023-06-26T05:39:16;99514.56;;;21.21;65.38
59055;BME280;44845;51.444;7.460;2023-06-26T05:41:45;99518.81;;;21.25;65.42
59055;BME280;44845;51.444;7.460;2023-06-26T05:44:11;99511.56;;;21.27;66.34
59055;BME280;44845;51.444;7.460;2023-06-26T05:46:36;99525.06;;;21.24;66.73
59055;BME280;44845;51.444;7.460;2023-06-26T05:49:02;99524.19;;;21.24;66.83
59055;BME280;44845;51.444;7.460;2023-06-26T05:51:28;99526.78;;;21.25;66.41
59055;BME280;44845;51.444;7.460;2023-06-26T05:53:54;99531.09;;;21.28;66.57
59055;BME280;44845;51.444;7.460;2023-06-26T05:56:19;99529.84;;;21.34;66.78
59055;BME280;44845;51.444;7.460;2023-06-26T05:58:45;99522.81;;;21.33;66.10
59055;BME280;44845;51.444;7.460;2023-06-26T06:01:11;99542.25;;;21.35;66.54
59055;BME280;44845;51.444;7.460;2023-06-26T06:03:36;99554.13;;;21.29;66.40
59055;BME280;44845;51.444;7.460;2023-06-26T06:06:03;99535.19;;;21.34;66.35
59055;BME280;44845;51.444;7.460;2023-06-26T06:08:28;99541.06;;;21.41;66.82
59055;BME280;44845;51.444;7.460;2023-06-26T06:10:53;99541.72;;;21.44;66.42
59055;BME280;44845;51.444;7.460;2023-06-26T06:13:19;99552.69;;;21.54;65.74
59055;BME280;44845;51.444;7.460;2023-06-26T06:15:44;99558.72;;;21.58;65.34
59055;BME280;44845;51.444;7.460;2023-06-26T06:18:10;99565.59;;;21.62;65.42
59055;BME280;44845;51.444;7.460;2023-06-26T06:20:35;99569.91;;;21.48;65.53
59055;BME280;44845;51.444;7.460;2023-06-26T06:23:00;99570.94;;;21.46;65.00
59055;BME280;44845;51.444;7.460;2023-06-26T06:25:26;99570.44;;;21.39;65.12
59055;BME280;44845;51.444;7.460;2023-06-26T06:27:51;99571.41;;;21.38;65.37
59055;BME280;44845;51.444;7.460;2023-06-26T06:30:16;99573.63;;;21.46;65.04
59055;BME280;44845;51.444;7.460;2023-06-26T06:32:42;99579.47;;;21.53;65.28
59055;BME280;44845;51.444;7.460;2023-06-26T06:35:07;99571.47;;;21.53;65.61
59055;BME280;44845;51.444;7.460;2023-06-26T06:37:37;99577.56;;;21.55;65.20
59055;BME280;44845;51.444;7.460;2023-06-26T06:40:03;99585.03;;;21.64;64.82
59055;BME280;44845;51.444;7.460;2023-06-26T06:42:29;99577.97;;;21.63;65.30
59055;BME280;44845;51.444;7.460;2023-06-26T06:44:55;99590.38;;;21.64;65.69
59055;BME280;44845;51.444;7.460;2023-06-26T06:47:20;99595.88;;;21.61;64.81
59055;BME280;44845;51.444;7.460;2023-06-26T06:49:46;99587.09;;;21.59;64.70
59055;BME280;44845;51.444;7.460;2023-06-26T06:52:11;99589.38;;;21.51;64.95
59055;BME280;44845;51.444;7.460;2023-06-26T06:54:55;99588.09;;;21.42;66.02
59055;BME280;44845;51.444;7.460;2023-06-26T06:57:24;99592.50;;;21.26;65.02
59055;BME280;44845;51.444;7.460;2023-06-26T06:59:49;99600.22;;;21.47;65.79
59055;BME280;44845;51.444;7.460;2023-06-26T07:02:17;99591.50;;;21.60;65.53
59055;BME280;44845;51.444;7.460;2023-06-26T07:04:42;99576.91;;;21.82;63.16
59055;BME280;44845;51.444;7.460;2023-06-26T07:07:08;99577.72;;;21.99;63.90
59055;BME280;44845;51.444;7.460;2023-06-26T07:09:34;99590.31;;;21.97;64.37
59055;BME280;44845;51.444;7.460;2023-06-26T07:11:59;99584.09;;;21.96;64.94
59055;BME280;44845;51.444;7.460;2023-06-26T07:14:25;99591.69;;;21.88;65.07
59055;BME280;44845;51.444;7.460;2023-06-26T07:16:50;99608.00;;;21.98;64.68
59055;BME280;44845;51.444;7.460;2023-06-26T07:19:16;99618.34;;;22.04;63.51
59055;BME280;44845;51.444;7.460;2023-06-26T07:21:41;99619.50;;;22.14;64.20
59055;BME280;44845;51.444;7.460;2023-06-26T07:24:08;99637.22;;;22.15;63.85
59055;BME280;44845;51.444;7.460;2023-06-26T07:26:33;99633.41;;;22.05;63.83
59055;BME280;44845;51.444;7.460;2023-06-26T07:28:58;99636.28;;;22.02;63.81
59055;BME280;44845;51.444;7.460;2023-06-26T07:31:24;99640.59;;;21.88;63.45
59055;BME280;44845;51.444;7.460;2023-06-26T07:33:49;99635.59;;;21.82;63.93
59055;BME280;44845;51.444;7.460;2023-06-26T07:36:14;99641.09;;;21.95;64.35
59055;BME280;44845;51.444;7.460;2023-06-26T07:38:40;99641.78;;;21.99;63.18
59055;BME280;44845;51.444;7.460;2023-06-26T07:41:05;99644.88;;;22.07;62.94
59055;BME280;44845;51.444;7.460;2023-06-26T07:43:30;99646.94;;;22.02;63.32
59055;BME280;44845;51.444;7.460;2023-06-26T07:45:57;99649.97;;;22.26;62.57
59055;BME280;44845;51.444;7.460;2023-06-26T07:48:24;99641.09;;;22.41;63.16
59055;BME280;44845;51.444;7.460;2023-06-26T07:50:49;99641.84;;;22.57;62.62
59055;BME280;44845;51.444;7.460;2023-06-26T07:53:15;99629.97;;;22.78;60.87
59055;BME280;44845;51.444;7.460;2023-06-26T07:55:40;99633.28;;;22.67;62.63
59055;BME280;44845;51.444;7.460;2023-06-26T07:58:06;99625.50;;;22.78;62.42
59055;BME280;44845;51.444;7.460;2023-06-26T08:00:32;99631.34;;;22.98;62.31
59055;BME280;44845;51.444;7.460;2023-06-26T08:02:57;99631.91;;;23.03;61.05
59055;BME280;44845;51.444;7.460;2023-06-26T08:05:22;99626.28;;;23.08;61.00
59055;BME280;44845;51.444;7.460;2023-06-26T08:07:48;99634.38;;;23.21;61.70
59055;BME280;44845;51.444;7.460;2023-06-26T08:10:13;99630.50;;;23.12;61.61
59055;BME280;44845;51.444;7.460;2023-06-26T08:12:38;99649.09;;;23.14;61.34
59055;BME280;44845;51.444;7.460;2023-06-26T08:15:06;99641.03;;;23.28;60.60
59055;BME280;44845;51.444;7.460;2023-06-26T08:17:31;99645.22;;;23.33;60.43
59055;BME280;44845;51.444;7.460;2023-06-26T08:19:57;99653.06;;;23.36;60.60
59055;BME280;44845;51.444;7.460;2023-06-26T08:22:23;99647.44;;;23.26;61.27
59055;BME280;44845;51.444;7.460;2023-06-26T08:24:48;99648.50;;;23.23;62.15
59055;BME280;44845;51.444;7.460;2023-06-26T08:27:14;99655.88;;;23.47;60.72
59055;BME280;44845;51.444;7.460;2023-06-26T08:29:39;99660.22;;;23.35;60.79
59055;BME280;44845;51.444;7.460;2023-06-26T08:32:05;99668.19;;;23.22;61.72
59055;BME280;44845;51.444;7.460;2023-06-26T08:34:30;99681.91;;;23.31;62.02
59055;BME280;44845;51.444;7.460;2023-06-26T08:36:55;99664.56;;;23.23;62.42
59055;BME280;44845;51.444;7.460;2023-06-26T08:39:21;99672.59;;;23.09;62.88
59055;BME280;44845;51.444;7.460;2023-06-26T08:41:46;99669.75;;;23.12;63.50
59055;BME280;44845;51.444;7.460;2023-06-26T08:44:11;99678.69;;;23.11;62.47
59055;BME280;44845;51.444;7.460;2023-06-26T08:46:37;99685.63;;;23.00;62.89
59055;BME280;44845;51.444;7.460;2023-06-26T08:52:36;99692.78;;;22.85;62.85
59055;BME280;44845;51.444;7.460;2023-06-26T08:55:08;99685.41;;;22.74;63.84
59055;BME280;44845;51.444;7.460;2023-06-26T08:57:35;99705.41;;;22.67;64.05
59055;BME280;44845;51.444;7.460;2023-06-26T09:00:02;99703.34;;;22.72;64.32
59055;BME280;44845;51.444;7.460;2023-06-26T09:02:28;99700.56;;;22.73;63.90
59055;BME280;44845;51.444;7.460;2023-06-26T09:04:53;99702.16;;;22.61;63.01
59055;BME280;44845;51.444;7.460;2023-06-26T09:07:19;99695.00;;;22.62;63.95
59055;BME280;44845;51.444;7.460;2023-06-26T09:09:44;99699.75;;;22.73;64.26
59055;BME280;44845;51.444;7.460;2023-06-26T09:12:10;99694.75;;;22.81;64.19
59055;BME280;44845;51.444;7.460;2023-06-26T09:14:36;99703.19;;;22.75;64.32
59055;BME280;44845;51.444;7.460;2023-06-26T09:17:02;99699.13;;;22.68;63.88
59055;BME280;44845;51.444;7.460;2023-06-26T09:19:27;99705.09;;;22.73;63.98
59055;BME280;44845;51.444;7.460;2023-06-26T09:21:54;99702.16;;;22.61;64.02
59055;BME280;44845;51.444;7.460;2023-06-26T09:24:19;99710.44;;;22.73;64.30
59055;BME280;44845;51.444;7.460;2023-06-26T09:26:46;99705.09;;;22.73;64.74
59055;BME280;44845;51.444;7.460;2023-06-26T09:29:13;99706.03;;;22.72;64.11
59055;BME280;44845;51.444;7.460;2023-06-26T09:31:40;99709.47;;;22.89;62.99
59055;BME280;44845;51.444;7.460;2023-06-26T09:34:06;99710.72;;;22.83;61.02
59055;BME280;44845;51.444;7.460;2023-06-26T09:36:32;99704.88;;;22.76;62.01
59055;BME280;44845;51.444;7.460;2023-06-26T09:39:05;99697.44;;;22.81;63.87
59055;BME280;44845;51.444;7.460;2023-06-26T09:41:36;99703.94;;;22.92;63.40
59055;BME280;44845;51.444;7.460;2023-06-26T09:44:04;99703.34;;;23.01;63.31
59055;BME280;44845;51.444;7.460;2023-06-26T09:46:31;99698.88;;;23.02;63.25
59055;BME280;44845;51.444;7.460;2023-06-26T09:49:10;99703.34;;;23.01;62.37
59055;BME280;44845;51.444;7.460;2023-06-26T09:51:38;99709.84;;;23.12;62.36
59055;BME280;44845;51.444;7.460;2023-06-26T09:54:04;99706.69;;;23.20;61.98
59055;BME280;44845;51.444;7.460;2023-06-26T09:56:30;99704.28;;;23.29;61.57
59055;BME280;44845;51.444;7.460;2023-06-26T09:58:57;99700.84;;;23.42;61.62
59055;BME280;44845;51.444;7.460;2023-06-26T10:01:26;99700.16;;;23.53;60.07
59055;BME280;44845;51.444;7.460;2023-06-26T10:03:52;99701.84;;;23.69;60.21
59055;BME280;44845;51.444;7.460;2023-06-26T10:06:37;99709.13;;;23.80;60.47
59055;BME280;44845;51.444;7.460;2023-06-26T10:09:04;99703.34;;;23.73;60.54
59055;BME280;44845;51.444;7.460;2023-06-26T10:11:35;99705.00;;;23.61;59.55
59055;BME280;44845;51.444;7.460;2023-06-26T10:14:03;99718.50;;;23.59;60.01
59055;BME280;44845;51.444;7.460;2023-06-26T10:16:31;99716.88;;;23.42;59.49
59055;BME280;44845;51.444;7.460;2023-06-26T10:19:02;99726.81;;;23.25;60.03
59055;BME280;44845;51.444;7.460;2023-06-26T10:21:29;99734.56;;;23.30;58.48
59055;BME280;44845;51.444;7.460;2023-06-26T10:23:56;99736.09;;;23.34;58.96
59055;BME280;44845;51.444;7.460;2023-06-26T10:26:22;99740.75;;;23.31;58.94
59055;BME280;44845;51.444;7.460;2023-06-26T10:28:50;99739.91;;;23.30;59.79
59055;BME280;44845;51.444;7.460;2023-06-26T10:31:21;99730.09;;;23.16;55.55
59055;BME280;44845;51.444;7.460;2023-06-26T10:33:48;99736.78;;;23.09;55.74
59055;BME280;44845;51.444;7.460;2023-06-26T10:36:19;99733.34;;;23.06;56.73
59055;BME280;44845;51.444;7.460;2023-06-26T10:38:58;99731.34;;;23.25;58.95
59055;BME280;44845;51.444;7.460;2023-06-26T10:41:25;99730.28;;;23.27;59.78
59055;BME280;44845;51.444;7.460;2023-06-26T10:46:24;99734.50;;;23.17;58.09
59055;BME280;44845;51.444;7.460;2023-06-26T10:48:57;99742.13;;;23.23;56.29
59055;BME280;44845;51.444;7.460;2023-06-26T10:51:26;99741.34;;;23.21;54.96
59055;BME280;44845;51.444;7.460;2023-06-26T10:53:56;99747.69;;;23.05;53.16
59055;BME280;44845;51.444;7.460;2023-06-26T10:56:41;99753.41;;;23.14;55.44
59055;BME280;44845;51.444;7.460;2023-06-26T10:59:21;99757.50;;;23.05;56.05
59055;BME280;44845;51.444;7.460;2023-06-26T11:01:54;99751.47;;;23.01;52.58
59055;BME280;44845;51.444;7.460;2023-06-26T11:04:35;99742.81;;;23.12;53.53
59055;BME280;44845;51.444;7.460;2023-06-26T11:07:33;99743.84;;;23.10;53.35
59055;BME280;44845;51.444;7.460;2023-06-26T11:10:08;99751.66;;;22.98;50.42
59055;BME280;44845;51.444;7.460;2023-06-26T11:12:37;99753.97;;;22.90;51.27
59055;BME280;44845;51.444;7.460;2023-06-26T11:15:17;99752.81;;;22.94;51.23
59055;BME280;44845;51.444;7.460;2023-06-26T11:17:43;99751.88;;;22.95;52.16
59055;BME280;44845;51.444;7.460;2023-06-26T11:20:11;99756.53;;;22.91;53.69
59055;BME280;44845;51.444;7.460;2023-06-26T11:22:39;99753.22;;;22.88;54.17
59055;BME280;44845;51.444;7.460;2023-06-26T11:25:05;99755.50;;;22.94;55.72
59055;BME280;44845;51.444;7.460;2023-06-26T11:30:02;99748.97;;;22.83;55.65
59055;BME280;44845;51.444;7.460;2023-06-26T11:32:27;99752.25;;;22.89;55.20
59055;BME280;44845;51.444;7.460;2023-06-26T11:34:54;99763.69;;;22.91;55.91
59055;BME280;44845;51.444;7.460;2023-06-26T11:37:21;99759.50;;;22.87;54.90
59055;BME280;44845;51.444;7.460;2023-06-26T11:39:46;99771.81;;;22.89;54.87
59055;BME280;44845;51.444;7.460;2023-06-26T11:42:12;99779.53;;;22.79;54.42
59055;BME280;44845;51.444;7.460;2023-06-26T11:44:41;99767.44;;;22.88;53.72
59055;BME280;44845;51.444;7.460;2023-06-26T11:47:17;99763.13;;;22.86;53.39
59055;BME280;44845;51.444;7.460;2023-06-26T11:49:44;99763.31;;;22.82;53.63
59055;BME280;44845;51.444;7.460;2023-06-26T11:52:09;99773.72;;;22.72;53.36
59055;BME280;44845;51.444;7.460;2023-06-26T11:54:35;99777.72;;;22.49;53.58
59055;BME280;44845;51.444;7.460;2023-06-26T11:57:00;99785.88;;;22.31;53.29
59055;BME280;44845;51.444;7.460;2023-06-26T11:59:40;99791.06;;;22.49;55.35
59055;BME280;44845;51.444;7.460;2023-06-26T12:02:10;99795.38;;;22.52;55.56
59055;BME280;44845;51.444;7.460;2023-06-26T12:04:37;99796.34;;;22.50;54.58
59055;BME280;44845;51.444;7.460;2023-06-26T12:07:05;99786.22;;;22.72;55.58
59055;BME280;44845;51.444;7.460;2023-06-26T12:09:33;99794.53;;;22.97;55.97
59055;BME280;44845;51.444;7.460;2023-06-26T12:11:59;99798.28;;;22.94;56.17
59055;BME280;44845;51.444;7.460;2023-06-26T12:14:25;99811.16;;;23.02;55.00
59055;BME280;44845;51.444;7.460;2023-06-26T12:16:54;99809.94;;;22.93;51.56
59055;BME280;44845;51.444;7.460;2023-06-26T12:19:24;99816.63;;;23.00;52.49
59055;BME280;44845;51.444;7.460;2023-06-26T12:21:51;99811.34;;;22.99;50.30
59055;BME280;44845;51.444;7.460;2023-06-26T12:24:20;99800.94;;;23.09;49.58
59055;BME280;44845;51.444;7.460;2023-06-26T12:26:54;99802.09;;;23.19;50.56
59055;BME280;44845;51.444;7.460;2023-06-26T12:29:29;99801.81;;;23.24;48.96
59055;BME280;44845;51.444;7.460;2023-06-26T12:31:56;99808.13;;;23.37;51.50
59055;BME280;44845;51.444;7.460;2023-06-26T12:34:28;99820.44;;;23.25;50.53
59055;BME280;44845;51.444;7.460;2023-06-26T12:37:00;99808.81;;;23.26;49.48
59055;BME280;44845;51.444;7.460;2023-06-26T12:39:25;99822.94;;;23.28;52.28
59055;BME280;44845;51.444;7.460;2023-06-26T12:41:55;99823.78;;;23.29;51.69
59055;BME280;44845;51.444;7.460;2023-06-26T12:44:22;99824.84;;;23.26;50.49
59055;BME280;44845;51.444;7.460;2023-06-26T12:46:49;99824.66;;;23.15;50.42
59055;BME280;44845;51.444;7.460;2023-06-26T12:49:15;99823.69;;;23.16;51.01
59055;BME280;44845;51.444;7.460;2023-06-26T12:51:40;99825.59;;;23.14;49.80
59055;BME280;44845;51.444;7.460;2023-06-26T12:54:07;99838.41;;;23.23;51.50
59055;BME280;44845;51.444;7.460;2023-06-26T12:56:33;99838.50;;;23.22;51.43
59055;BME280;44845;51.444;7.460;2023-06-26T12:58:58;99855.78;;;23.31;53.10
59055;BME280;44845;51.444;7.460;2023-06-26T13:01:23;99834.03;;;23.22;49.87
59055;BME280;44845;51.444;7.460;2023-06-26T13:03:50;99851.41;;;23.29;48.96
59055;BME280;44845;51.444;7.460;2023-06-26T13:06:16;99844.22;;;23.30;48.44
59055;BME280;44845;51.444;7.460;2023-06-26T13:08:41;99840.50;;;23.33;46.79